Time;durP1;ratioP1;P1;durP2;ratioP2;P2;SDS_P1;SDS_P2;PMS_P1;PMS_P2;Temp;Humidity;BMP_temperature;BMP_pressure;BME280_temperature;BME280_humidity;BME280_pressure;Samples;Min_cycle;Max_cycle;Signal;HPM_P1;HPM_P2
2022/01/15 00:01:24;;;;;;;27.87;14.38;;;;;;;-2.43;93.45;100741.63;2045767;76;21166;-67
2022/01/15 00:04:27;;;;;;;27.57;13.60;;;;;;;-2.45;93.43;100743.19;2048000;79;20231;-67
2022/01/15 00:07:30;;;;;;;24.70;13.62;;;;;;;-2.47;93.41;100737.13;2049081;79;20736;-67
2022/01/15 00:10:33;;;;;;;26.54;14.20;;;;;;;-2.48;93.35;100735.34;2048896;79;20159;-67
2022/01/15 00:13:38;;;;;;;27.00;13.78;;;;;;;-2.50;93.26;100735.25;2048667;79;20239;-67
2022/01/15 00:16:56;;;;;;;23.99;12.95;;;;;;;-2.54;93.22;100730.72;2044130;77;52447;-67
2022/01/15 00:20:05;;;;;;;21.74;11.75;;;;;;;-2.55;93.19;100734.03;2042799;79;20308;-67
2022/01/15 00:23:08;;;;;;;;;;;;;;;-2.61;93.09;100736.16;2043952;79;20192;-67
2022/01/15 00:26:11;;;;;;;27.06;13.54;;;;;;;-2.65;93.17;100735.84;2043115;79;20100;-67
2022/01/15 00:29:14;;;;;;;26.73;13.64;;;;;;;-2.64;93.47;100724.91;2043233;79;20591;-67
2022/01/15 00:35:37;;;;;;;26.23;13.44;;;;;;;-2.65;93.49;100724.03;2051473;69;20271;-68
2022/01/15 00:38:40;;;;;;;23.53;12.80;;;;;;;-2.66;93.49;100726.47;2022208;80;20267;-68
2022/01/15 00:41:42;;;;;;;30.34;14.43;;;;;;;-2.67;93.41;100720.50;2022824;80;20277;-68
2022/01/15 00:44:49;;;;;;;25.17;12.81;;;;;;;-2.71;93.30;100715.06;2022580;80;20196;-68
2022/01/15 00:47:52;;;;;;;25.61;13.49;;;;;;;-2.71;93.30;100721.03;2020983;78;25365;-68
2022/01/15 00:50:55;;;;;;;22.50;13.49;;;;;;;-2.72;93.31;100706.56;2021829;80;20175;-68
2022/01/15 00:53:57;;;;;;;24.48;13.09;;;;;;;-2.74;93.16;100706.47;2021654;80;20240;-68
2022/01/15 00:57:00;;;;;;;27.43;14.46;;;;;;;-2.78;92.87;100701.06;2021924;80;20219;-68
2022/01/15 01:00:05;;;;;;;26.93;13.29;;;;;;;-2.83;92.68;100703.28;2021202;80;20175;-68
2022/01/15 01:03:08;;;;;;;25.52;13.39;;;;;;;-2.84;92.70;100700.66;2022724;77;22843;-68
2022/01/15 01:06:10;;;;;;;25.96;13.87;;;;;;;-2.85;92.65;100701.44;2022185;80;20187;-68
2022/01/15 01:09:13;;;;;;;22.59;13.11;;;;;;;-2.84;92.71;100699.00;2022816;80;20219;-68
2022/01/15 01:12:31;;;;;;;23.78;13.14;;;;;;;-2.83;92.75;100682.97;2022978;80;20199;-68
2022/01/15 01:22:53;;;;;;;23.61;13.10;;;;;;;-2.85;92.79;100686.19;2023177;80;20235;-68
2022/01/15 01:25:58;;;;;;;26.11;13.78;;;;;;;-2.86;92.81;100685.31;2022658;80;20159;-68
2022/01/15 01:32:47;;;;;;;25.82;13.74;;;;;;;-2.85;92.91;100681.97;2020994;77;20626;-68
2022/01/15 01:36:22;;;;;;;23.96;13.50;;;;;;;-2.93;92.65;100669.50;2022749;80;20203;-68
2022/01/15 01:39:19;;;;;;;28.20;14.90;;;;;;;-2.95;92.79;100671.06;2022971;80;20655;-68
2022/01/15 01:45:24;;;;;;;24.74;12.86;;;;;;;-2.93;93.26;100669.50;2021350;77;21088;-68
2022/01/15 01:48:27;;;;;;;23.66;13.60;;;;;;;-2.93;93.35;100672.03;2022619;80;20196;-68
2022/01/15 01:51:33;;;;;;;24.16;13.48;;;;;;;-2.91;93.58;100673.91;2022465;80;21025;-68
2022/01/15 01:54:36;;;;;;;25.68;13.33;;;;;;;-2.90;93.72;100678.22;2023023;80;22212;-67
2022/01/15 01:57:40;;;;;;;24.21;13.90;;;;;;;-2.87;93.74;100680.09;2022393;80;20320;-66
2022/01/15 02:00:42;;;;;;;21.74;13.48;;;;;;;-2.91;93.60;100679.00;2020896;77;20197;-66
2022/01/15 02:03:46;;;;;;;22.96;13.79;;;;;;;-2.93;93.44;100682.22;2022308;80;20187;-68
2022/01/15 02:06:49;;;;;;;26.24;13.39;;;;;;;-2.96;93.43;100674.38;2022762;80;20211;-68
2022/01/15 02:09:53;;;;;;;21.58;12.82;;;;;;;-2.97;93.50;100673.50;2022624;80;20209;-68
2022/01/15 02:12:56;;;;;;;20.87;12.74;;;;;;;-2.97;93.58;100670.97;2021896;80;20187;-68
2022/01/15 02:16:02;;;;;;;23.60;12.89;;;;;;;-2.99;93.39;100669.09;2020058;80;20285;-68
2022/01/15 02:19:06;;;;;;;24.33;13.43;;;;;;;-3.05;93.20;100667.91;2022170;77;24280;-68
2022/01/15 02:25:59;;;;;;;25.79;13.00;;;;;;;-3.05;93.20;100659.41;2022383;80;20190;-67
2022/01/15 02:29:03;;;;;;;27.28;14.19;;;;;;;-3.06;93.21;100657.59;2019280;80;20170;-68
2022/01/15 02:32:06;;;;;;;24.04;14.00;;;;;;;-3.07;93.40;100660.91;2020642;77;20608;-68
2022/01/15 02:35:12;;;;;;;23.82;13.51;;;;;;;-3.08;93.48;100660.03;2022135;80;20183;-68
2022/01/15 02:38:15;;;;;;;28.23;13.43;;;;;;;-3.10;93.46;100648.00;2022847;80;20986;-68
2022/01/15 02:41:44;;;;;;;26.31;12.67;;;;;;;-3.10;93.40;100650.53;2023076;80;20279;-68
2022/01/15 02:44:46;;;;;;;26.59;13.64;;;;;;;-3.12;93.33;100647.03;2022451;80;20296;-68
2022/01/15 02:48:01;;;;;;;22.47;12.89;;;;;;;-3.13;93.32;100645.25;2020975;77;28684;-68
2022/01/15 02:51:04;;;;;;;24.31;12.14;;;;;;;-3.16;93.16;100638.31;2022482;80;20728;-67
2022/01/15 02:54:08;;;;;;;28.24;13.06;;;;;;;-3.20;92.99;100640.53;2022406;80;20195;-67
2022/01/15 02:57:10;;;;;;;25.99;12.32;;;;;;;-3.23;92.92;100637.75;2022932;80;20194;-68
2022/01/15 03:00:13;;;;;;;24.23;12.32;;;;;;;-3.27;92.82;100633.25;2021227;80;20556;-68
2022/01/15 03:03:16;;;;;;;25.22;12.83;;;;;;;-3.28;92.78;100634.03;2022110;78;22049;-68
2022/01/15 03:06:20;;;;;;;29.48;12.84;;;;;;;-3.28;92.81;100639.09;2022622;80;20171;-68
2022/01/15 03:09:22;;;;;;;24.22;13.03;;;;;;;-3.31;92.49;100622.00;2022879;80;20191;-67
2022/01/15 03:12:25;;;;;;;22.21;12.80;;;;;;;-3.33;92.56;100623.56;2022784;80;20175;-67
2022/01/15 03:15:28;;;;;;;24.88;13.60;;;;;;;-3.32;92.66;100629.50;2020685;78;23169;-67
2022/01/15 03:18:31;;;;;;;19.12;11.99;;;;;;;-3.33;92.60;100622.66;2022577;80;20219;-67
2022/01/15 03:21:33;;;;;;;25.21;13.42;;;;;;;-3.37;92.52;100627.53;2018839;80;20204;-67
2022/01/15 03:24:36;;;;;;;24.32;12.74;;;;;;;-3.39;92.46;100618.06;2023103;80;20193;-67
2022/01/15 03:27:40;;;;;;;21.99;12.67;;;;;;;-3.40;92.63;100617.16;2023445;80;20213;-67
2022/01/15 03:30:43;;;;;;;23.37;12.59;;;;;;;-3.38;92.78;100620.69;2021410;77;20507;-67
2022/01/15 03:33:45;;;;;;;23.36;12.20;;;;;;;-3.38;92.84;100623.22;2024036;80;20258;-67
2022/01/15 03:36:48;;;;;;;21.84;12.48;;;;;;;-3.41;92.72;100615.41;2022963;80;20190;-67
2022/01/15 03:39:51;;;;;;;22.73;12.13;;;;;;;-3.41;92.85;100609.41;2023808;80;20205;-67
2022/01/15 03:42:53;;;;;;;22.36;12.11;;;;;;;-3.39;92.99;100612.97;2023526;80;20191;-67
2022/01/15 03:45:56;;;;;;;22.86;13.87;;;;;;;-3.40;93.02;100612.09;2021650;78;22578;-67
2022/01/15 03:48:59;;;;;;;21.58;12.03;;;;;;;-3.42;92.85;100613.63;2023174;80;20712;-68
2022/01/15 03:52:02;;;;;;;25.08;13.68;;;;;;;-3.44;92.86;100616.81;2023246;80;20190;-67
2022/01/15 03:55:07;;;;;;;23.34;13.08;;;;;;;-3.46;92.73;100615.84;2023802;80;20204;-68
2022/01/15 03:58:10;;;;;;;26.68;12.14;;;;;;;-3.49;92.80;100613.09;2022774;80;20183;-67
2022/01/15 04:01:12;;;;;;;19.93;10.97;;;;;;;-3.49;92.91;100613.97;2021668;77;21261;-68
2022/01/15 04:04:16;;;;;;;22.97;11.53;;;;;;;-3.51;92.79;100607.03;2023088;80;20605;-67
2022/01/15 04:07:19;;;;;;;23.73;11.43;;;;;;;-3.51;92.95;100612.97;2022627;80;20203;-67
2022/01/15 04:10:22;;;;;;;19.74;11.20;;;;;;;-3.52;92.87;100602.72;2022463;80;20553;-67
2022/01/15 04:13:24;;;;;;;21.47;11.86;;;;;;;-3.53;92.86;100595.88;2023440;80;20228;-67
2022/01/15 04:16:30;;;;;;;24.00;12.48;;;;;;;-3.51;92.93;100605.38;2021028;78;20630;-67
2022/01/15 04:19:34;;;;;;;21.66;12.30;;;;;;;-3.54;92.73;100596.66;2023342;80;20191;-67
2022/01/15 04:22:37;;;;;;;24.72;13.09;;;;;;;-3.53;92.85;100599.31;2022912;80;20915;-67
2022/01/15 04:25:39;;;;;;;21.16;11.87;;;;;;;-3.55;92.88;100602.50;2023039;80;20289;-67
2022/01/15 04:28:42;;;;;;;20.33;11.20;;;;;;;-3.52;93.09;100590.03;2023046;80;20209;-67
2022/01/15 04:31:48;;;;;;;22.09;11.22;;;;;;;-3.51;93.30;100587.59;2021885;78;21398;-68
2022/01/15 04:34:51;;;;;;;18.47;11.02;;;;;;;-3.47;93.49;100586.16;2019948;80;20180;-67
2022/01/15 04:38:02;;;;;;;21.60;11.66;;;;;;;-3.47;93.46;100584.50;2017351;80;20180;-68
2022/01/15 04:41:05;;;;;;;21.94;12.40;;;;;;;-3.46;93.41;100590.44;2017971;80;20233;-67
2022/01/15 04:44:08;;;;;;;25.53;14.04;;;;;;;-3.45;93.36;100584.59;2020621;80;20940;-67
2022/01/15 04:47:11;;;;;;;24.08;12.82;;;;;;;-3.46;93.30;100580.28;2016039;78;21600;-67
2022/01/15 04:50:16;;;;;;;18.93;10.63;;;;;;;-3.45;93.52;100585.47;2013563;80;20689;-67
2022/01/15 04:53:19;;;;;;;17.12;10.36;;;;;;;-3.44;93.69;100574.53;2017758;80;20280;-67
2022/01/15 04:56:22;;;;;;;15.93;10.03;;;;;;;-3.38;94.08;100576.66;2017135;80;20303;-68
2022/01/15 04:59:25;;;;;;;20.82;10.24;;;;;;;-3.37;94.18;100573.34;2018009;80;20221;-68
2022/01/15 05:02:27;;;;;;;17.93;10.32;;;;;;;-3.33;94.51;100577.84;2015304;77;20515;-67
2022/01/15 05:05:30;;;;;;;18.36;9.14;;;;;;;-3.29;94.53;100577.28;2017851;80;20168;-67
2022/01/15 05:08:33;;;;;;;13.96;8.82;;;;;;;-3.26;94.63;100574.94;2017607;80;20717;-68
2022/01/15 05:11:48;;;;;;;17.08;9.00;;;;;;;-3.25;94.66;100575.81;2017468;80;21008;-68
2022/01/15 05:14:50;;;;;;;13.69;8.50;;;;;;;-3.25;94.63;100586.88;2017982;80;20755;-67
2022/01/15 05:17:53;;;;;;;18.63;9.29;;;;;;;-3.22;94.72;100571.88;2015553;78;21567;-67
2022/01/15 05:20:57;;;;;;;15.91;9.13;;;;;;;-3.22;94.62;100573.53;2018343;80;20272;-68
2022/01/15 05:23:59;;;;;;;16.26;9.32;;;;;;;-3.18;94.74;100570.41;2017829;80;20184;-68
2022/01/15 05:27:02;;;;;;;14.43;8.88;;;;;;;-3.12;95.06;100565.75;2018229;80;20245;-67
2022/01/15 05:30:06;;;;;;;14.58;8.79;;;;;;;-3.13;95.08;100564.84;2016291;80;20203;-68
2022/01/15 05:33:09;;;;;;;14.87;9.22;;;;;;;-3.06;95.39;100566.16;2016985;78;20748;-68
2022/01/15 05:36:11;;;;;;;14.33;9.41;;;;;;;-2.99;95.55;100562.38;2021943;80;20735;-68
2022/01/15 05:39:14;;;;;;;13.49;7.88;;;;;;;-2.91;95.88;100563.78;2022325;80;20243;-68
2022/01/15 05:42:17;;;;;;;15.00;9.24;;;;;;;-2.84;95.98;100565.97;2022632;80;20183;-68
2022/01/15 05:45:21;;;;;;;11.96;8.49;;;;;;;-2.78;96.05;100562.16;2021082;78;22102;-68
2022/01/15 05:48:23;;;;;;;13.48;8.26;;;;;;;-2.71;96.14;100568.53;2022451;80;20228;-68
2022/01/15 05:51:29;;;;;;;14.31;9.08;;;;;;;-2.65;96.23;100561.34;2022754;80;20200;-68
2022/01/15 05:54:32;;;;;;;12.04;7.98;;;;;;;-2.57;96.37;100566.91;2022617;80;20855;-68
2022/01/15 05:57:35;;;;;;;15.08;9.81;;;;;;;-2.52;96.29;100563.88;2022343;80;20561;-68
2022/01/15 06:00:37;;;;;;;16.10;8.34;;;;;;;-2.44;96.41;100561.88;2021040;77;20550;-68
2022/01/15 06:03:40;;;;;;;14.13;8.82;;;;;;;-2.36;96.43;100562.34;2023056;80;20285;-68
2022/01/15 06:06:43;;;;;;;15.61;8.44;;;;;;;-2.28;96.49;100549.38;2022937;80;20191;-68
2022/01/15 06:09:45;;;;;;;11.74;8.17;;;;;;;-2.21;96.45;100548.09;2023355;80;20187;-69
2022/01/15 06:12:48;;;;;;;14.53;8.03;;;;;;;-2.16;96.34;100550.16;2022228;80;20266;-68
2022/01/15 06:15:50;;;;;;;14.78;8.73;;;;;;;-2.09;96.37;100548.91;2021018;77;21925;-68
2022/01/15 06:18:53;;;;;;;12.48;7.50;;;;;;;-2.03;96.30;100546.72;2022939;80;20252;-68
2022/01/15 06:21:56;;;;;;;15.02;8.47;;;;;;;-1.97;96.29;100541.19;2022793;80;20235;-68
2022/01/15 06:24:59;;;;;;;13.04;8.08;;;;;;;-1.89;96.28;100552.72;2021984;80;20200;-68
2022/01/15 06:28:02;;;;;;;11.89;8.12;;;;;;;-1.83;96.31;100553.97;2022482;80;20187;-68
2022/01/15 06:31:04;;;;;;;12.40;8.22;;;;;;;-1.74;96.38;100547.72;2020960;80;20210;-69
2022/01/15 06:34:07;;;;;;;14.13;8.81;;;;;;;-1.67;96.46;100545.63;2022234;80;20536;-69
2022/01/15 06:37:10;;;;;;;12.56;8.46;;;;;;;-1.62;96.50;100544.25;2022350;80;20215;-69
2022/01/15 06:40:13;;;;;;;12.37;7.92;;;;;;;-1.57;96.45;100542.00;2023090;80;20195;-69
2022/01/15 06:43:15;;;;;;;13.61;8.61;;;;;;;-1.52;96.41;100544.03;2022041;80;20183;-69
2022/01/15 06:46:18;;;;;;;12.17;7.84;;;;;;;-1.48;96.35;100545.09;2020419;78;21708;-69
2022/01/15 06:49:21;;;;;;;12.68;7.80;;;;;;;-1.45;96.28;100550.38;2021920;80;20915;-69
2022/01/15 06:52:24;;;;;;;12.50;7.68;;;;;;;-1.39;96.29;100553.31;2022349;80;20305;-69
2022/01/15 06:55:27;;;;;;;10.60;7.72;;;;;;;-1.34;96.36;100543.41;2022860;80;20690;-69
2022/01/15 06:58:29;;;;;;;12.77;7.83;;;;;;;-1.32;96.33;100542.72;2023075;80;20203;-69
2022/01/15 07:01:32;;;;;;;10.82;8.04;;;;;;;-1.28;96.32;100542.09;2022555;77;21871;-69
2022/01/15 07:04:35;;;;;;;13.92;8.20;;;;;;;-1.24;96.33;100546.63;2023772;80;20200;-69
2022/01/15 07:07:44;;;;;;;12.83;7.88;;;;;;;-1.18;96.38;100552.88;2023028;80;20175;-69
2022/01/15 07:10:46;;;;;;;10.94;7.48;;;;;;;-1.16;96.41;100547.06;2022694;80;20211;-69
2022/01/15 07:13:49;;;;;;;11.09;7.98;;;;;;;-1.12;96.33;100550.69;2022851;80;20284;-69
2022/01/15 07:16:51;;;;;;;11.02;7.33;;;;;;;-1.10;96.37;100538.91;2020717;80;23519;-69
2022/01/15 07:19:54;;;;;;;13.44;7.88;;;;;;;-1.06;96.38;100536.66;2022970;80;20251;-69
2022/01/15 07:22:57;;;;;;;11.87;7.36;;;;;;;-1.04;96.40;100532.53;2023183;80;20176;-69
2022/01/15 07:26:00;;;;;;;14.13;8.41;;;;;;;-1.02;96.31;100525.84;2023864;80;20989;-69
2022/01/15 07:29:05;;;;;;;12.43;8.07;;;;;;;-0.99;96.32;100540.44;2023148;80;20628;-69
2022/01/15 07:32:07;;;;;;;12.28;8.21;;;;;;;-0.97;96.33;100541.41;2021294;77;21230;-69
2022/01/15 07:35:10;;;;;;;12.31;8.19;;;;;;;-0.94;96.26;100539.03;2023081;80;20728;-69
2022/01/15 07:38:16;;;;;;;12.06;7.34;;;;;;;-0.92;96.27;100535.78;2023378;80;20175;-70
2022/01/15 07:41:18;;;;;;;11.46;7.66;;;;;;;-0.89;96.25;100545.31;2024047;80;20257;-69
2022/01/15 07:44:21;;;;;;;12.70;7.02;;;;;;;-0.88;96.26;100544.53;2023238;80;20171;-69
2022/01/15 07:47:23;;;;;;;14.78;7.99;;;;;;;-0.85;96.23;100544.72;2021642;77;20192;-69
2022/01/15 07:50:26;;;;;;;12.28;7.97;;;;;;;-0.83;96.28;100534.59;2023605;80;20278;-71
2022/01/15 07:53:29;;;;;;;10.53;7.14;;;;;;;-0.80;96.29;100534.78;2023785;80;20167;-70
2022/01/15 07:56:32;;;;;;;10.64;7.52;;;;;;;-0.78;96.23;100535.75;2022435;80;20201;-69
2022/01/15 07:59:34;;;;;;;9.58;6.69;;;;;;;-0.76;96.26;100529.06;2022906;80;20240;-69
2022/01/15 08:02:37;;;;;;;13.73;7.69;;;;;;;-0.72;96.30;100520.78;2021443;77;21654;-70
2022/01/15 08:05:39;;;;;;;10.64;6.60;;;;;;;-0.71;96.17;100527.69;2022462;80;20179;-70
2022/01/15 08:08:42;;;;;;;9.58;6.88;;;;;;;-0.70;96.07;100524.34;2023455;80;20222;-70
2022/01/15 08:11:45;;;;;;;9.59;6.26;;;;;;;-0.68;96.01;100518.53;2023067;80;20163;-69
2022/01/15 08:14:50;;;;;;;10.29;7.01;;;;;;;-0.67;96.00;100517.75;2023527;80;20272;-69
2022/01/15 08:17:52;;;;;;;7.70;5.83;;;;;;;-0.64;95.99;100517.91;2020471;77;21257;-70
2022/01/15 08:20:55;;;;;;;8.62;6.08;;;;;;;-0.62;95.95;100518.00;2022054;80;20175;-69
2022/01/15 08:23:58;;;;;;;9.31;5.84;;;;;;;-0.58;95.95;100513.94;2020894;80;20289;-70
2022/01/15 08:27:00;;;;;;;10.08;6.26;;;;;;;-0.56;95.90;100514.91;2021453;80;20232;-71
2022/01/15 08:30:07;;;;;;;10.89;7.17;;;;;;;-0.53;95.84;100512.56;2019457;80;20195;-70
2022/01/15 08:33:11;;;;;;;11.52;8.30;;;;;;;-0.49;95.86;100514.50;2021141;77;28538;-70
2022/01/15 08:36:13;;;;;;;11.06;7.48;;;;;;;-0.45;95.87;100514.75;2021840;80;20187;-70
2022/01/15 08:39:16;;;;;;;18.58;12.11;;;;;;;-0.44;95.69;100511.41;2023011;80;20858;-70
2022/01/15 08:42:19;;;;;;;18.00;10.53;;;;;;;-0.42;95.59;100517.47;2022968;80;20172;-70
2022/01/15 08:45:22;;;;;;;16.31;10.49;;;;;;;-0.38;95.72;100518.50;2020768;80;23320;-69
2022/01/15 08:48:24;;;;;;;21.80;13.20;;;;;;;-0.35;95.72;100517.03;2021255;80;20196;-69
2022/01/15 08:51:29;;;;;;;15.90;11.28;;;;;;;-0.31;95.64;100521.53;2022809;80;20171;-69
2022/01/15 08:54:32;;;;;;;15.20;10.42;;;;;;;-0.27;95.50;100514.91;2017989;80;20212;-69
2022/01/15 08:57:36;;;;;;;13.22;9.37;;;;;;;-0.25;95.44;100520.97;2022302;80;20261;-69
2022/01/15 09:00:39;;;;;;;13.30;9.43;;;;;;;-0.21;95.37;100517.81;2021004;77;23613;-69
2022/01/15 09:03:43;;;;;;;14.98;9.94;;;;;;;-0.21;95.29;100507.59;2021842;80;20171;-70
2022/01/15 09:06:46;;;;;;;13.71;9.56;;;;;;;-0.20;95.29;100509.34;2022216;80;20187;-70
2022/01/15 09:09:48;;;;;;;14.30;9.78;;;;;;;-0.18;95.18;100518.00;2022668;80;20187;-70
2022/01/15 09:12:52;;;;;;;12.66;8.85;;;;;;;-0.13;95.21;100523.34;2022545;80;20200;-70
2022/01/15 09:16:02;;;;;;;13.03;8.17;;;;;;;-0.13;95.10;100519.13;2021200;77;21056;-69
2022/01/15 09:19:06;;;;;;;18.42;10.82;;;;;;;-0.09;95.11;100521.06;2021641;80;20689;-70
2022/01/15 09:22:11;;;;;;;16.53;10.16;;;;;;;-0.05;95.09;100522.97;2022517;80;20174;-69
2022/01/15 09:25:14;;;;;;;21.32;11.70;;;;;;;0.01;95.04;100514.81;2022217;80;20187;-69
2022/01/15 09:31:37;;;;;;;17.47;10.20;;;;;;;0.07;94.83;100515.13;2020670;77;21724;-70
2022/01/15 09:34:41;;;;;;;15.19;9.99;;;;;;;0.08;94.64;100506.66;2022352;80;20167;-69
2022/01/15 09:37:46;;;;;;;17.49;8.92;;;;;;;0.11;94.57;100499.16;2022611;80;20171;-70
2022/01/15 09:40:49;;;;;;;16.90;10.34;;;;;;;0.11;94.42;100500.84;2022520;80;20208;-70
2022/01/15 09:43:52;;;;;;;11.86;8.38;;;;;;;0.14;94.37;100503.56;2022282;80;20877;-70
2022/01/15 09:46:55;;;;;;;14.29;9.44;;;;;;;0.15;94.28;100502.78;2019947;78;20230;-70
2022/01/15 09:50:00;;;;;;;12.47;8.72;;;;;;;0.17;94.22;100501.16;2022354;80;20332;-70
2022/01/15 09:53:04;;;;;;;11.67;8.60;;;;;;;0.17;94.01;100490.97;2023239;80;20714;-69
2022/01/15 09:56:07;;;;;;;12.82;8.64;;;;;;;0.22;94.05;100489.56;2021971;80;20639;-69
2022/01/15 09:59:10;;;;;;;12.20;7.41;;;;;;;0.26;93.95;100487.25;2022408;80;20212;-70
2022/01/15 10:02:13;;;;;;;11.52;7.56;;;;;;;0.28;93.76;100484.78;2020516;77;21490;-70
2022/01/15 10:05:17;;;;;;;10.32;7.44;;;;;;;0.32;93.68;100491.78;2022207;80;21183;-70
2022/01/15 10:08:20;;;;;;;10.18;7.58;;;;;;;0.36;93.48;100495.38;2022184;80;20379;-70
2022/01/15 10:11:44;;;;;;;10.11;7.42;;;;;;;0.38;93.44;100487.03;2021933;80;20898;-70
2022/01/15 10:14:47;;;;;;;11.32;7.31;;;;;;;0.43;93.39;100489.81;2022611;80;20227;-70
2022/01/15 10:17:50;;;;;;;12.51;6.76;;;;;;;0.50;93.32;100491.91;2018271;77;27504;-70
2022/01/15 10:21:08;;;;;;;10.07;6.99;;;;;;;0.56;93.27;100482.03;2020982;80;20461;-70
2022/01/15 10:24:13;;;;;;;8.78;6.40;;;;;;;0.63;93.17;100483.22;2021051;80;21210;-70
2022/01/15 10:27:33;;;;;;;10.34;7.63;;;;;;;0.71;93.07;100477.69;2019289;80;20192;-70
2022/01/15 10:30:36;;;;;;;10.89;7.11;;;;;;;0.82;92.86;100475.72;2018782;77;21792;-70
2022/01/15 10:33:39;;;;;;;9.14;6.86;;;;;;;0.88;92.62;100479.44;2020149;80;20207;-70
2022/01/15 10:36:45;;;;;;;10.09;6.53;;;;;;;0.96;92.47;100482.41;2019744;80;20369;-69
2022/01/15 10:39:58;;;;;;;9.72;6.73;;;;;;;1.01;92.30;100472.41;2020647;80;20389;-70
2022/01/15 10:43:01;;;;;;;8.56;6.36;;;;;;;1.05;91.88;100470.06;2019651;80;20354;-70
2022/01/15 10:46:04;;;;;;;8.51;6.68;;;;;;;1.09;91.79;100469.47;2018543;77;21289;-70
2022/01/15 10:49:25;;;;;;;8.95;7.14;;;;;;;1.11;91.55;100470.41;2019776;80;20315;-70
2022/01/15 10:52:28;;;;;;;9.20;6.79;;;;;;;1.14;91.36;100462.88;2019743;80;20312;-70
2022/01/15 10:55:32;;;;;;;10.43;6.96;;;;;;;1.25;91.45;100468.50;2019972;80;20483;-70
2022/01/15 10:58:36;;;;;;;9.46;6.14;;;;;;;1.37;91.33;100458.03;2020422;80;20324;-70
2022/01/15 11:01:39;;;;;;;8.88;6.63;;;;;;;1.54;91.41;100448.63;2018146;77;20685;-70
2022/01/15 11:04:41;;;;;;;9.06;6.11;;;;;;;1.70;90.85;100448.56;2020545;80;20330;-70
2022/01/15 11:07:44;;;;;;;8.24;6.04;;;;;;;1.86;90.58;100442.47;2020750;80;21019;-70
2022/01/15 11:10:54;;;;;;;7.95;6.07;;;;;;;2.04;90.00;100435.66;2020217;80;21228;-70
2022/01/15 11:13:57;;;;;;;7.25;5.76;;;;;;;2.22;89.48;100436.50;2019792;80;20320;-70
2022/01/15 11:17:00;;;;;;;6.60;5.59;;;;;;;2.29;88.60;100435.94;2018297;77;23100;-70
2022/01/15 11:20:05;;;;;;;8.18;6.20;;;;;;;2.37;88.07;100421.81;2019447;80;21127;-70
2022/01/15 11:23:08;;;;;;;8.24;5.44;;;;;;;2.42;87.39;100420.31;2022323;80;20336;-70
2022/01/15 11:26:14;;;;;;;7.10;5.09;;;;;;;2.43;86.67;100423.75;2018109;80;20308;-70
2022/01/15 11:29:18;;;;;;;6.36;5.57;;;;;;;2.42;85.95;100420.31;2018863;80;20372;-70
2022/01/15 11:32:21;;;;;;;9.13;6.26;;;;;;;2.39;85.29;100425.31;2017110;77;20320;-70
2022/01/15 11:35:40;;;;;;;6.11;5.14;;;;;;;2.37;84.85;100426.06;2018393;80;20342;-70
2022/01/15 11:38:45;;;;;;;7.81;5.80;;;;;;;2.38;84.86;100420.13;2018895;80;20400;-70
2022/01/15 11:41:52;;;;;;;7.09;5.26;;;;;;;2.38;84.62;100418.44;2019671;80;20320;-70
2022/01/15 11:44:55;;;;;;;6.60;5.06;;;;;;;2.41;84.49;100412.56;2019520;80;21276;-70
2022/01/15 11:48:23;;;;;;;5.43;4.56;;;;;;;2.41;84.30;100410.00;2018518;78;39245;-70
2022/01/15 11:51:26;;;;;;;9.04;6.74;;;;;;;2.43;84.28;100410.97;2020112;80;20368;-70
2022/01/15 11:54:29;;;;;;;6.51;5.20;;;;;;;2.49;84.37;100400.09;2021172;80;20196;-70
2022/01/15 11:57:34;;;;;;;6.28;5.31;;;;;;;2.50;83.96;100401.84;2019889;80;20320;-70
2022/01/15 12:00:43;;;;;;;5.90;4.97;;;;;;;2.53;83.62;100396.88;2019073;78;21159;-70
2022/01/15 12:03:47;;;;;;;7.40;5.68;;;;;;;2.56;83.50;100391.88;2020736;80;20335;-70
2022/01/15 12:07:05;;;;;;;6.14;5.31;;;;;;;2.63;83.62;100389.63;2018004;80;20434;-70
2022/01/15 12:10:12;;;;;;;6.38;5.28;;;;;;;2.71;83.61;100388.28;2017544;80;20899;-70
2022/01/15 12:13:23;;;;;;;8.25;5.50;;;;;;;2.81;83.44;100392.09;2020092;80;20839;-70
2022/01/15 12:16:34;;;;;;;8.77;6.06;;;;;;;2.88;83.32;100383.88;2017490;78;20342;-70
2022/01/15 12:19:37;;;;;;;10.07;7.16;;;;;;;2.92;82.95;100383.19;2019695;80;20367;-70
2022/01/15 12:22:43;;;;;;;8.19;6.60;;;;;;;3.00;82.93;100368.97;2019585;80;21015;-70
2022/01/15 12:25:47;;;;;;;10.65;6.78;;;;;;;3.07;82.68;100367.56;2020041;80;20300;-70
2022/01/15 12:28:50;;;;;;;11.18;6.54;;;;;;;3.12;82.26;100360.91;2020710;80;20898;-70
2022/01/15 12:31:52;;;;;;;7.40;6.10;;;;;;;3.09;81.44;100360.78;2018833;78;22287;-70
2022/01/15 12:34:57;;;;;;;7.22;5.79;;;;;;;3.09;81.50;100365.06;2020165;80;20351;-71
2022/01/15 12:38:04;;;;;;;7.07;5.76;;;;;;;3.12;81.28;100360.03;2020071;80;20459;-71
2022/01/15 12:41:07;;;;;;;7.04;5.06;;;;;;;3.10;81.32;100359.09;2020157;80;20324;-70
2022/01/15 12:44:09;;;;;;;8.52;5.45;;;;;;;3.05;81.05;100353.75;2019960;80;20332;-72
2022/01/15 12:47:14;;;;;;;7.70;5.39;;;;;;;3.03;80.84;100351.13;2017671;77;20404;-71
2022/01/15 12:50:16;;;;;;;8.02;5.10;;;;;;;3.00;80.51;100348.44;2020205;80;20320;-70
2022/01/15 12:53:23;;;;;;;6.43;5.26;;;;;;;3.04;80.71;100341.75;2015671;80;20374;-71
2022/01/15 12:56:27;;;;;;;8.29;5.34;;;;;;;3.07;80.73;100331.66;2019871;80;20430;-70
2022/01/15 12:59:38;;;;;;;8.52;5.13;;;;;;;3.13;80.82;100325.88;2019308;80;20418;-70
2022/01/15 13:02:40;;;;;;;6.25;4.86;;;;;;;3.13;80.69;100310.47;2017768;77;20397;-70
2022/01/15 13:05:54;;;;;;;7.44;4.96;;;;;;;3.16;80.38;100302.91;2020209;80;20340;-70
2022/01/15 13:08:59;;;;;;;5.54;4.75;;;;;;;3.13;80.17;100298.53;2019291;80;20432;-70
2022/01/15 13:12:03;;;;;;;6.75;4.51;;;;;;;3.17;80.23;100296.94;2015874;80;20337;-70
2022/01/15 13:15:18;;;;;;;6.32;4.93;;;;;;;3.19;80.09;100298.75;2017064;80;20397;-70
2022/01/15 13:18:21;;;;;;;6.81;4.96;;;;;;;3.22;80.33;100292.88;2017703;77;23334;-70
2022/01/15 13:21:27;;;;;;;7.10;5.34;;;;;;;3.23;79.86;100302.31;2017299;80;20357;-70
2022/01/15 13:24:29;;;;;;;6.28;4.90;;;;;;;3.19;79.83;100293.63;2020344;80;20988;-70
2022/01/15 13:27:34;;;;;;;6.19;4.79;;;;;;;3.15;79.85;100288.31;2018810;80;21412;-70
2022/01/15 13:30:36;;;;;;;7.35;4.93;;;;;;;3.15;79.86;100290.88;2013926;78;25154;-70
2022/01/15 13:33:42;;;;;;;7.24;5.14;;;;;;;3.13;79.99;100282.25;2018851;80;20408;-70
2022/01/15 13:36:46;;;;;;;6.59;4.81;;;;;;;3.15;80.33;100283.19;2017788;80;20316;-70
2022/01/15 13:39:49;;;;;;;7.31;5.24;;;;;;;3.11;80.22;100271.94;2019541;80;20377;-70
2022/01/15 13:42:52;;;;;;;8.23;5.94;;;;;;;3.12;80.40;100270.25;2019833;80;20304;-70
2022/01/15 13:46:05;;;;;;;7.03;5.16;;;;;;;3.08;80.33;100266.69;2016890;78;34147;-70
2022/01/15 13:49:11;;;;;;;7.46;4.82;;;;;;;3.03;80.32;100271.59;2019272;80;20354;-70
2022/01/15 13:55:47;;;;;;;7.36;5.45;;;;;;;3.01;80.87;100268.13;2019424;80;20773;-70
2022/01/15 13:58:53;;;;;;;8.44;6.11;;;;;;;3.00;80.89;100263.81;2018573;80;20342;-71
2022/01/15 14:01:59;;;;;;;7.21;5.13;;;;;;;2.99;81.10;100264.63;2017648;77;22109;-70
2022/01/15 14:05:16;;;;;;;7.82;5.64;;;;;;;2.96;80.77;100264.50;2019333;80;20288;-70
2022/01/15 14:08:23;;;;;;;6.39;4.81;;;;;;;2.94;80.73;100261.00;2019013;80;20328;-70
2022/01/15 14:11:27;;;;;;;7.15;5.35;;;;;;;2.92;80.81;100252.38;2018127;80;20392;-70
2022/01/15 14:15:03;;;;;;;6.20;5.18;;;;;;;2.93;80.80;100251.56;2016863;80;20893;-70
2022/01/15 14:18:11;;;;;;;6.96;5.26;;;;;;;2.90;80.86;100253.13;2015424;78;23348;-70
2022/01/15 14:21:38;;;;;;;6.14;5.13;;;;;;;2.85;80.79;100247.78;2016695;80;20324;-70
2022/01/15 14:24:40;;;;;;;7.24;5.54;;;;;;;2.82;80.87;100241.66;2017339;80;20993;-70
2022/01/15 14:27:45;;;;;;;7.18;5.11;;;;;;;2.77;80.99;100238.94;2017659;80;20361;-70
2022/01/15 14:30:50;;;;;;;5.75;4.89;;;;;;;2.70;81.19;100235.25;2014405;78;23231;-70
2022/01/15 14:33:58;;;;;;;6.63;5.15;;;;;;;2.67;81.25;100247.06;2016985;80;20377;-70
2022/01/15 14:37:01;;;;;;;6.79;5.01;;;;;;;2.64;81.43;100246.94;2014931;80;20652;-70
2022/01/15 14:40:04;;;;;;;6.94;5.54;;;;;;;2.63;81.53;100245.19;2017552;80;20203;-70